createdAt,value
2023-05-27T00:01:37.430Z,10.20
2023-05-27T00:04:06.269Z,10.15
2023-05-27T00:06:34.834Z,10.12
2023-05-27T00:09:03.433Z,10.07
2023-05-27T00:11:31.741Z,10.04
2023-05-27T00:14:00.257Z,10.02
2023-05-27T00:16:29.494Z,10.00
2023-05-27T00:18:57.828Z,9.97
2023-05-27T00:21:26.230Z,9.94
2023-05-27T00:23:54.726Z,9.91
2023-05-27T00:26:23.146Z,9.87
2023-05-27T00:28:51.695Z,9.84
2023-05-27T00:31:20.046Z,9.79
2023-05-27T00:33:48.405Z,9.76
2023-05-27T00:36:17.077Z,9.72
2023-05-27T00:38:45.553Z,9.67
2023-05-27T00:41:14.100Z,9.62
2023-05-27T00:43:42.514Z,9.58
2023-05-27T00:46:11.696Z,9.54
2023-05-27T00:48:40.384Z,9.50
2023-05-27T00:51:09.632Z,9.47
2023-05-27T00:53:44.021Z,9.43
2023-05-27T00:56:22.484Z,9.41
2023-05-27T00:58:51.206Z,9.38
2023-05-27T01:01:20.521Z,9.35
2023-05-27T01:03:48.902Z,9.32
2023-05-27T01:06:24.676Z,9.31
2023-05-27T01:09:12.188Z,9.29
2023-05-27T01:11:56.689Z,9.27
2023-05-27T01:14:27.113Z,9.23
2023-05-27T01:16:58.392Z,9.21
2023-05-27T01:19:46.590Z,9.21
2023-05-27T01:22:16.264Z,9.18
2023-05-27T01:24:45.474Z,9.18
2023-05-27T01:27:14.010Z,9.18
2023-05-27T01:29:43.002Z,9.16
2023-05-27T01:32:21.963Z,9.14
2023-05-27T01:35:02.337Z,9.11
2023-05-27T01:37:36.941Z,9.08
2023-05-27T01:40:08.263Z,9.05
2023-05-27T01:42:39.063Z,9.02
2023-05-27T01:45:09.338Z,8.94
2023-05-27T01:47:38.578Z,8.91
2023-05-27T01:50:08.040Z,8.89
2023-05-27T01:52:36.914Z,8.87
2023-05-27T01:55:06.342Z,8.85
2023-05-27T01:57:35.115Z,8.82
2023-05-27T02:00:06.342Z,8.80
2023-05-27T02:02:45.717Z,8.76
2023-05-27T02:05:16.462Z,8.71
2023-05-27T02:07:45.846Z,8.67
2023-05-27T02:10:14.133Z,8.62
2023-05-27T02:12:42.895Z,8.57
2023-05-27T02:15:11.505Z,8.55
2023-05-27T02:17:40.090Z,8.54
2023-05-27T02:20:08.801Z,8.52
2023-05-27T02:22:37.434Z,8.49
2023-05-27T02:25:06.363Z,8.47
2023-05-27T02:27:34.731Z,8.47
2023-05-27T02:30:03.981Z,8.44
2023-05-27T02:32:33.769Z,8.42
2023-05-27T02:35:02.148Z,8.39
2023-05-27T02:37:30.523Z,8.37
2023-05-27T02:39:58.978Z,8.34
2023-05-27T02:42:27.232Z,8.31
2023-05-27T02:44:55.794Z,8.29
2023-05-27T02:47:25.206Z,8.26
2023-05-27T02:49:53.517Z,8.24
2023-05-27T02:52:21.825Z,8.23
2023-05-27T02:54:50.326Z,8.23
2023-05-27T02:57:19.975Z,8.24
2023-05-27T02:59:48.484Z,8.22
2023-05-27T03:02:16.833Z,8.21
2023-05-27T03:04:45.658Z,8.20
2023-05-27T03:07:14.325Z,8.19
2023-05-27T03:09:42.705Z,8.18
2023-05-27T03:12:11.005Z,8.15
2023-05-27T03:14:39.389Z,8.13
2023-05-27T03:17:07.690Z,8.13
2023-05-27T03:19:36.687Z,8.13
2023-05-27T03:22:06.156Z,8.15
2023-05-27T03:24:34.855Z,8.16
2023-05-27T03:27:04.603Z,8.18
2023-05-27T03:29:33.946Z,8.20
2023-05-27T03:32:02.453Z,8.22
2023-05-27T03:34:31.111Z,8.26
2023-05-27T03:37:00.134Z,8.32
2023-05-27T03:39:42.484Z,8.39
2023-05-27T03:42:11.046Z,8.47
2023-05-27T03:44:39.396Z,8.54
2023-05-27T03:47:07.868Z,8.62
2023-05-27T03:49:36.346Z,8.70
2023-05-27T03:52:04.949Z,8.78
2023-05-27T03:54:33.271Z,8.86
2023-05-27T03:57:02.450Z,8.95
2023-05-27T03:59:31.162Z,9.06
2023-05-27T04:01:59.509Z,9.16
2023-05-27T04:04:28.011Z,9.26
2023-05-27T04:06:56.779Z,9.37
2023-05-27T04:09:25.129Z,9.49
2023-05-27T04:11:53.559Z,9.62
2023-05-27T04:14:25.541Z,9.76
2023-05-27T04:16:54.284Z,9.90
2023-05-27T04:19:23.340Z,10.04
2023-05-27T04:21:51.753Z,10.19
2023-05-27T04:24:20.604Z,10.36
2023-05-27T04:26:49.918Z,10.51
2023-05-27T04:29:19.910Z,10.65
2023-05-27T04:31:48.259Z,10.79
2023-05-27T04:34:19.185Z,10.94
2023-05-27T04:36:50.936Z,11.09
2023-05-27T04:39:23.179Z,11.23
2023-05-27T04:41:52.441Z,11.41
2023-05-27T04:44:34.060Z,11.60
2023-05-27T04:47:04.052Z,11.79
2023-05-27T04:49:33.169Z,11.95
2023-05-27T04:52:02.598Z,12.08
2023-05-27T04:54:31.981Z,12.21
2023-05-27T04:57:00.992Z,12.37
2023-05-27T04:59:47.595Z,12.50
2023-05-27T05:02:28.658Z,12.65
2023-05-27T05:05:09.719Z,12.79
2023-05-27T05:07:39.230Z,12.95
2023-05-27T05:10:12.663Z,13.06
2023-05-27T05:12:49.845Z,13.16
2023-05-27T05:15:18.527Z,13.27
2023-05-27T05:17:48.909Z,13.30
2023-05-27T05:20:20.517Z,13.34
2023-05-27T05:22:49.935Z,13.43
2023-05-27T05:25:32.213Z,13.57
2023-05-27T05:28:00.529Z,13.69
2023-05-27T05:30:30.965Z,13.77
2023-05-27T05:33:00.726Z,13.87
2023-05-27T05:35:32.512Z,14.01
2023-05-27T05:38:14.738Z,14.15
2023-05-27T05:40:49.976Z,14.21
2023-05-27T05:43:19.487Z,14.24
2023-05-27T05:45:48.128Z,14.29
2023-05-27T05:48:17.710Z,14.44
2023-05-27T05:50:46.356Z,14.56
2023-05-27T05:53:15.259Z,14.68
2023-05-27T05:55:43.840Z,14.78
2023-05-27T05:58:12.419Z,14.93
2023-05-27T06:00:40.769Z,15.04
2023-05-27T06:03:26.734Z,15.08
2023-05-27T06:05:57.643Z,15.12
2023-05-27T06:08:26.084Z,15.14
2023-05-27T06:11:07.626Z,15.24
2023-05-27T06:13:36.185Z,15.35
2023-05-27T06:16:07.220Z,15.53
2023-05-27T06:18:35.808Z,15.67
2023-05-27T06:21:04.442Z,15.82
2023-05-27T06:23:39.369Z,15.83
2023-05-27T06:26:16.050Z,15.87
2023-05-27T06:28:49.228Z,16.00
2023-05-27T06:31:18.039Z,16.20
2023-05-27T06:33:46.451Z,16.39
2023-05-27T06:36:14.899Z,16.58
2023-05-27T06:38:43.882Z,16.77
2023-05-27T06:41:12.489Z,16.86
2023-05-27T06:43:45.225Z,16.87
2023-05-27T06:46:27.704Z,17.02
2023-05-27T06:49:03.375Z,17.19
2023-05-27T06:51:33.145Z,17.34
2023-05-27T06:54:01.474Z,17.45
2023-05-27T06:56:48.191Z,17.32
2023-05-27T06:59:50.872Z,17.42
2023-05-27T07:02:19.595Z,17.62
2023-05-27T07:04:48.189Z,17.80
2023-05-27T07:07:16.925Z,17.87
2023-05-27T07:09:45.401Z,17.85
2023-05-27T07:12:13.842Z,17.83
2023-05-27T07:14:48.302Z,17.87
2023-05-27T07:17:16.910Z,18.00
2023-05-27T07:19:45.635Z,18.14
2023-05-27T07:22:17.873Z,18.33
2023-05-27T07:24:46.902Z,18.44
2023-05-27T07:27:15.345Z,18.42
2023-05-27T07:29:49.298Z,18.41
2023-05-27T07:32:34.318Z,18.21
2023-05-27T07:35:03.003Z,18.17
2023-05-27T07:37:31.451Z,18.26
2023-05-27T07:39:59.922Z,18.37
2023-05-27T07:42:32.617Z,18.52
2023-05-27T07:45:04.127Z,18.67
2023-05-27T07:47:32.749Z,18.84
2023-05-27T07:50:00.995Z,19.02
2023-05-27T07:52:41.752Z,19.18
2023-05-27T07:55:30.564Z,19.20
2023-05-27T07:57:58.892Z,19.21
2023-05-27T08:00:32.097Z,19.21
2023-05-27T08:03:01.011Z,19.12
2023-05-27T08:05:48.404Z,18.97
2023-05-27T08:08:46.707Z,18.79
2023-05-27T08:11:33.422Z,18.77
2023-05-27T08:14:36.526Z,18.96
2023-05-27T08:17:25.213Z,19.19
2023-05-27T08:19:59.434Z,19.34
2023-05-27T08:22:48.009Z,19.39
2023-05-27T08:25:39.340Z,19.46
2023-05-27T08:28:26.115Z,19.64
2023-05-27T08:31:11.548Z,19.81
2023-05-27T08:33:42.986Z,19.83
2023-05-27T08:36:12.876Z,19.95
2023-05-27T08:38:43.348Z,20.11
2023-05-27T08:41:34.165Z,20.30
2023-05-27T08:44:20.737Z,20.33
2023-05-27T08:46:57.499Z,20.37
2023-05-27T08:49:26.173Z,20.46
2023-05-27T08:51:56.065Z,20.55
2023-05-27T08:54:26.392Z,20.76
2023-05-27T08:56:58.884Z,20.95
2023-05-27T08:59:27.728Z,20.99
2023-05-27T09:01:57.962Z,20.97
2023-05-27T09:04:27.139Z,20.99
2023-05-27T09:06:55.756Z,20.96
2023-05-27T09:09:24.059Z,21.05
2023-05-27T09:11:52.484Z,21.23
2023-05-27T09:14:23.691Z,21.40
2023-05-27T09:16:52.192Z,21.35
2023-05-27T09:19:21.433Z,21.19
2023-05-27T09:21:53.935Z,21.10
2023-05-27T09:24:26.147Z,21.02
2023-05-27T09:26:56.628Z,21.02
2023-05-27T09:29:27.926Z,21.05
2023-05-27T09:31:57.037Z,21.11
2023-05-27T09:34:25.474Z,21.17
2023-05-27T09:36:53.985Z,21.22
2023-05-27T09:39:23.720Z,21.22
2023-05-27T09:41:56.679Z,21.35
2023-05-27T09:44:31.005Z,21.49
2023-05-27T09:47:00.557Z,21.54
2023-05-27T09:49:30.818Z,21.48
2023-05-27T09:52:00.157Z,21.53
2023-05-27T09:54:29.009Z,21.58
2023-05-27T09:56:58.966Z,21.71
2023-05-27T09:59:27.622Z,21.74
2023-05-27T10:01:57.295Z,21.78
2023-05-27T10:04:26.586Z,21.95
2023-05-27T10:06:55.330Z,22.15
2023-05-27T10:09:24.117Z,22.33
2023-05-27T10:11:52.682Z,22.27
2023-05-27T10:14:21.164Z,22.27
2023-05-27T10:16:57.967Z,22.29
2023-05-27T10:19:26.500Z,22.43
2023-05-27T10:21:54.816Z,22.49
2023-05-27T10:24:32.488Z,22.37
2023-05-27T10:27:06.224Z,22.24
2023-05-27T10:29:41.338Z,22.31
2023-05-27T10:32:09.843Z,22.36
2023-05-27T10:34:39.416Z,22.36
2023-05-27T10:37:08.334Z,22.51
2023-05-27T10:39:36.738Z,22.75
2023-05-27T10:42:05.298Z,22.92
2023-05-27T10:44:35.358Z,23.04
2023-05-27T10:47:05.034Z,22.95
2023-05-27T10:49:39.061Z,22.86
2023-05-27T10:52:14.328Z,22.90
2023-05-27T10:54:48.046Z,23.01
2023-05-27T10:57:19.314Z,23.12
2023-05-27T10:59:58.736Z,23.26
2023-05-27T11:02:36.232Z,23.30
2023-05-27T11:05:12.718Z,23.33
2023-05-27T11:07:42.233Z,23.37
2023-05-27T11:10:11.533Z,23.53
2023-05-27T11:12:44.891Z,23.60
2023-05-27T11:15:13.257Z,23.61
2023-05-27T11:17:41.738Z,23.81
2023-05-27T11:20:11.395Z,23.82
2023-05-27T11:22:39.803Z,23.67
2023-05-27T11:25:10.607Z,23.55
2023-05-27T11:27:40.502Z,23.48
2023-05-27T11:30:11.632Z,23.56
2023-05-27T11:32:44.091Z,23.70
2023-05-27T11:35:15.171Z,23.65
2023-05-27T11:37:53.381Z,23.47
2023-05-27T11:40:21.976Z,23.32
2023-05-27T11:42:50.581Z,23.44
2023-05-27T11:45:21.117Z,23.55
2023-05-27T11:47:52.391Z,23.75
2023-05-27T11:50:22.612Z,24.10
2023-05-27T11:52:54.552Z,24.34
2023-05-27T11:55:24.012Z,24.28
2023-05-27T11:57:52.807Z,24.17
2023-05-27T12:00:21.709Z,24.11
2023-05-27T12:02:50.263Z,24.25
2023-05-27T12:05:34.297Z,24.33
2023-05-27T12:08:04.858Z,24.51
2023-05-27T12:10:33.251Z,24.70
2023-05-27T12:13:07.108Z,24.87
2023-05-27T12:15:35.576Z,24.98
2023-05-27T12:18:06.509Z,25.03
2023-05-27T12:20:34.810Z,24.94
2023-05-27T12:23:03.849Z,24.93
2023-05-27T12:25:32.442Z,25.05
2023-05-27T12:28:00.790Z,25.15
2023-05-27T12:30:29.486Z,25.06
2023-05-27T12:32:57.736Z,24.88
2023-05-27T12:35:26.932Z,24.85
2023-05-27T12:37:55.381Z,24.88
2023-05-27T12:40:23.732Z,25.02
2023-05-27T12:42:52.175Z,25.15
2023-05-27T12:45:24.116Z,25.14
2023-05-27T12:47:53.486Z,25.16
2023-05-27T12:50:22.881Z,25.13
2023-05-27T12:52:55.426Z,25.11
2023-05-27T12:55:23.902Z,25.15
2023-05-27T12:57:53.804Z,25.18
2023-05-27T13:00:23.133Z,25.22
2023-05-27T13:02:52.122Z,25.13
2023-05-27T13:05:21.818Z,24.87
2023-05-27T13:08:02.469Z,24.64
2023-05-27T13:10:31.305Z,24.46
2023-05-27T13:13:01.846Z,24.33
2023-05-27T13:15:31.042Z,24.37
2023-05-27T13:18:00.919Z,24.46
2023-05-27T13:20:32.392Z,24.50
2023-05-27T13:23:02.075Z,24.47
2023-05-27T13:25:30.973Z,24.38
2023-05-27T13:27:59.653Z,24.36
2023-05-27T13:30:28.361Z,24.50
2023-05-27T13:32:57.473Z,24.62
2023-05-27T13:35:25.982Z,24.58
2023-05-27T13:37:55.318Z,24.52
2023-05-27T13:40:23.774Z,24.50
2023-05-27T13:42:55.985Z,24.46
2023-05-27T13:45:26.004Z,24.46
2023-05-27T13:47:54.625Z,24.26
2023-05-27T13:50:22.945Z,24.06
2023-05-27T13:52:51.397Z,23.86
2023-05-27T13:55:19.676Z,23.67
2023-05-27T13:57:48.344Z,23.53
2023-05-27T14:00:18.013Z,23.45
2023-05-27T14:02:46.442Z,23.47
2023-05-27T14:05:14.971Z,23.40
2023-05-27T14:07:45.172Z,23.36
2023-05-27T14:10:13.584Z,23.39
2023-05-27T14:12:42.000Z,23.25
2023-05-27T14:15:10.960Z,23.08
2023-05-27T14:17:40.883Z,23.04
2023-05-27T14:20:13.312Z,22.98
2023-05-27T14:22:43.482Z,22.95
2023-05-27T14:25:12.092Z,22.93
2023-05-27T14:27:42.013Z,22.88
2023-05-27T14:30:10.645Z,22.84
2023-05-27T14:32:38.998Z,22.69
2023-05-27T14:35:09.000Z,22.59
2023-05-27T14:37:37.616Z,22.51
2023-05-27T14:40:07.103Z,22.43
2023-05-27T14:42:35.415Z,22.46
2023-05-27T14:45:04.193Z,22.43
2023-05-27T14:47:32.487Z,22.42
2023-05-27T14:50:00.824Z,22.28
2023-05-27T14:52:29.353Z,22.16
2023-05-27T14:54:57.656Z,21.96
2023-05-27T14:57:25.956Z,21.75
2023-05-27T14:59:54.290Z,21.63
2023-05-27T15:02:23.537Z,21.50
2023-05-27T15:04:52.186Z,21.34
2023-05-27T15:07:23.611Z,21.23
2023-05-27T15:09:51.891Z,21.13
2023-05-27T15:12:20.205Z,20.99
2023-05-27T15:14:48.527Z,20.87
2023-05-27T15:17:16.903Z,20.82
2023-05-27T15:19:45.205Z,20.82
2023-05-27T15:22:13.642Z,20.80
2023-05-27T15:24:42.082Z,20.71
2023-05-27T15:27:10.704Z,20.61
2023-05-27T15:29:39.178Z,20.57
2023-05-27T15:32:07.608Z,20.51
2023-05-27T15:34:35.993Z,20.45
2023-05-27T15:37:04.671Z,20.38
2023-05-27T15:39:32.969Z,20.37
2023-05-27T15:42:01.152Z,20.33
2023-05-27T15:44:29.590Z,20.27
2023-05-27T15:46:57.963Z,20.22
2023-05-27T15:49:26.354Z,20.16
2023-05-27T15:51:54.766Z,20.12
2023-05-27T15:54:23.078Z,20.06
2023-05-27T15:56:51.359Z,20.03
2023-05-27T15:59:19.796Z,20.03
2023-05-27T16:01:48.135Z,20.03
2023-05-27T16:04:16.508Z,20.02
2023-05-27T16:06:44.839Z,20.03
2023-05-27T16:09:13.381Z,19.97
2023-05-27T16:11:41.633Z,19.87
2023-05-27T16:14:09.928Z,19.80
2023-05-27T16:16:38.447Z,19.75
2023-05-27T16:19:06.895Z,19.71
2023-05-27T16:21:35.371Z,19.66
2023-05-27T16:24:07.784Z,19.57
2023-05-27T16:26:36.950Z,19.48
2023-05-27T16:29:05.915Z,19.41
2023-05-27T16:31:34.269Z,19.31
2023-05-27T16:34:02.754Z,19.22
2023-05-27T16:36:31.608Z,19.16
2023-05-27T16:39:00.052Z,19.08
2023-05-27T16:41:28.702Z,19.02
2023-05-27T16:43:57.100Z,18.95
2023-05-27T16:46:25.833Z,18.86
2023-05-27T16:48:54.232Z,18.78
2023-05-27T16:51:22.565Z,18.70
2023-05-27T16:53:50.906Z,18.60
2023-05-27T16:56:19.488Z,18.53
2023-05-27T16:58:47.870Z,18.47
2023-05-27T17:01:16.314Z,18.39
2023-05-27T17:03:44.760Z,18.34
2023-05-27T17:06:13.140Z,18.30
2023-05-27T17:08:41.618Z,18.24
2023-05-27T17:11:09.933Z,18.18
2023-05-27T17:13:38.251Z,18.10
2023-05-27T17:16:07.635Z,18.03
2023-05-27T17:18:36.778Z,17.98
2023-05-27T17:21:05.440Z,17.92
2023-05-27T17:23:33.729Z,17.85
2023-05-27T17:26:02.089Z,17.77
2023-05-27T17:28:30.945Z,17.69
2023-05-27T17:30:59.665Z,17.62
2023-05-27T17:33:28.247Z,17.56
2023-05-27T17:35:56.648Z,17.51
2023-05-27T17:38:27.919Z,17.46
2023-05-27T17:40:56.795Z,17.39
2023-05-27T17:43:25.106Z,17.34
2023-05-27T17:45:53.383Z,17.29
2023-05-27T17:48:21.974Z,17.24
2023-05-27T17:50:50.679Z,17.16
2023-05-27T17:53:19.247Z,17.10
2023-05-27T17:55:47.682Z,17.03
2023-05-27T17:58:16.448Z,16.94
2023-05-27T18:00:46.593Z,16.86
2023-05-27T18:03:15.357Z,16.79
2023-05-27T18:05:43.966Z,16.68
2023-05-27T18:08:12.243Z,16.57
2023-05-27T18:10:40.584Z,16.45
2023-05-27T18:13:14.417Z,16.32
2023-05-27T18:15:43.251Z,16.16
2023-05-27T18:18:11.724Z,15.99
2023-05-27T18:20:40.227Z,15.86
2023-05-27T18:23:08.684Z,15.74
2023-05-27T18:25:37.112Z,15.61
2023-05-27T18:28:06.244Z,15.50
2023-05-27T18:30:34.630Z,15.41
2023-05-27T18:33:06.851Z,15.30
2023-05-27T18:35:36.502Z,15.19
2023-05-27T18:38:06.456Z,15.07
2023-05-27T18:40:36.856Z,14.96
2023-05-27T18:43:06.436Z,14.86
2023-05-27T18:45:52.190Z,14.74
2023-05-27T18:48:20.961Z,14.62
2023-05-27T18:50:49.662Z,14.50
2023-05-27T18:53:19.685Z,14.40
2023-05-27T18:55:48.236Z,14.29
2023-05-27T18:58:17.242Z,14.17
2023-05-27T19:00:45.901Z,14.06
2023-05-27T19:03:17.141Z,13.96
2023-05-27T19:05:46.973Z,13.84
2023-05-27T19:08:15.433Z,13.74
2023-05-27T19:10:44.527Z,13.63
2023-05-27T19:13:13.167Z,13.53
2023-05-27T19:15:41.585Z,13.41
2023-05-27T19:18:13.964Z,13.31
2023-05-27T19:20:43.558Z,13.21
2023-05-27T19:23:12.072Z,13.11
2023-05-27T19:25:40.437Z,13.02
2023-05-27T19:28:09.792Z,12.93
2023-05-27T19:30:38.232Z,12.82
2023-05-27T19:33:06.701Z,12.68
2023-05-27T19:35:35.143Z,12.58
2023-05-27T19:38:03.428Z,12.49
2023-05-27T19:40:32.303Z,12.41
2023-05-27T19:43:00.985Z,12.34
2023-05-27T19:45:29.409Z,12.25
2023-05-27T19:47:59.675Z,12.17
2023-05-27T19:50:28.262Z,12.10
2023-05-27T19:52:56.607Z,12.02
2023-05-27T19:55:24.916Z,11.94
2023-05-27T19:57:53.370Z,11.86
2023-05-27T20:00:21.604Z,11.77
2023-05-27T20:02:50.023Z,11.67
2023-05-27T20:05:18.620Z,11.59
2023-05-27T20:07:46.876Z,11.50
2023-05-27T20:10:15.751Z,11.42
2023-05-27T20:12:45.575Z,11.34
2023-05-27T20:15:15.012Z,11.25
2023-05-27T20:17:43.583Z,11.16
2023-05-27T20:20:13.334Z,11.08
2023-05-27T20:22:41.874Z,11.00
2023-05-27T20:25:10.696Z,10.90
2023-05-27T20:27:41.052Z,10.82
2023-05-27T20:30:10.050Z,10.74
2023-05-27T20:32:39.553Z,10.68
2023-05-27T20:35:09.668Z,10.60
2023-05-27T20:37:38.075Z,10.52
2023-05-27T20:40:10.459Z,10.46
2023-05-27T20:42:39.535Z,10.40
2023-05-27T20:45:08.276Z,10.33
2023-05-27T20:47:38.618Z,10.26
2023-05-27T20:50:08.571Z,10.20
2023-05-27T20:52:37.313Z,10.14
2023-05-27T20:55:08.874Z,10.07
2023-05-27T20:57:37.504Z,9.99
2023-05-27T21:00:06.420Z,9.92
2023-05-27T21:02:37.362Z,9.86
2023-05-27T21:05:07.182Z,9.79
2023-05-27T21:07:35.589Z,9.72
2023-05-27T21:10:04.295Z,9.66
2023-05-27T21:12:32.769Z,9.61
2023-05-27T21:15:01.058Z,9.56
2023-05-27T21:17:29.465Z,9.51
2023-05-27T21:19:58.374Z,9.46
2023-05-27T21:22:26.892Z,9.40
2023-05-27T21:24:55.138Z,9.36
2023-05-27T21:27:23.522Z,9.32
2023-05-27T21:29:53.098Z,9.27
2023-05-27T21:32:23.983Z,9.22
2023-05-27T21:34:52.559Z,9.17
2023-05-27T21:37:20.992Z,9.11
2023-05-27T21:39:49.487Z,9.07
2023-05-27T21:42:19.481Z,9.02
2023-05-27T21:44:47.819Z,8.96
2023-05-27T21:47:16.102Z,8.90
2023-05-27T21:49:44.539Z,8.83
2023-05-27T21:52:12.880Z,8.78
2023-05-27T21:54:41.212Z,8.73
2023-05-27T21:57:09.574Z,8.69
2023-05-27T21:59:37.914Z,8.65
2023-05-27T22:02:06.212Z,8.63
2023-05-27T22:04:34.649Z,8.59
2023-05-27T22:07:03.021Z,8.56
2023-05-27T22:09:31.542Z,8.52
2023-05-27T22:11:59.938Z,8.48
2023-05-27T22:14:28.434Z,8.45
2023-05-27T22:16:56.728Z,8.42
2023-05-27T22:19:25.115Z,8.38
2023-05-27T22:21:53.413Z,8.34
2023-05-27T22:24:21.670Z,8.30
2023-05-27T22:26:50.088Z,8.24
2023-05-27T22:29:18.562Z,8.19
2023-05-27T22:31:47.002Z,8.15
2023-05-27T22:34:15.414Z,8.11
2023-05-27T22:36:45.763Z,8.06
2023-05-27T22:39:14.113Z,8.00
2023-05-27T22:41:42.427Z,7.94
2023-05-27T22:44:10.647Z,7.88
2023-05-27T22:46:39.056Z,7.83
2023-05-27T22:49:07.576Z,7.79
2023-05-27T22:51:37.776Z,7.76
2023-05-27T22:54:06.121Z,7.74
2023-05-27T22:56:34.479Z,7.71
2023-05-27T22:59:02.826Z,7.69
2023-05-27T23:01:31.148Z,7.67
2023-05-27T23:03:59.685Z,7.63
2023-05-27T23:06:28.201Z,7.62
2023-05-27T23:08:56.521Z,7.64
2023-05-27T23:11:26.889Z,7.67
2023-05-27T23:13:55.148Z,7.71
2023-05-27T23:16:23.469Z,7.74
2023-05-27T23:18:51.826Z,7.78
2023-05-27T23:21:20.246Z,7.81
2023-05-27T23:23:48.627Z,7.83
2023-05-27T23:26:17.550Z,7.83
2023-05-27T23:28:45.769Z,7.87
2023-05-27T23:31:14.051Z,7.90
2023-05-27T23:33:42.440Z,7.93
2023-05-27T23:36:10.780Z,7.95
2023-05-27T23:38:39.723Z,7.93
2023-05-27T23:41:08.128Z,7.93
2023-05-27T23:43:36.565Z,7.90
2023-05-27T23:46:04.927Z,7.84
2023-05-27T23:48:34.646Z,7.78
2023-05-27T23:51:03.038Z,7.76
2023-05-27T23:53:31.308Z,7.76
2023-05-27T23:55:59.677Z,7.76
2023-05-27T23:58:28.030Z,7.76
